Time;durP1;ratioP1;P1;durP2;ratioP2;P2;SDS_P1;SDS_P2;PMS_P1;PMS_P2;Temp;Humidity;BMP_temperature;BMP_pressure;BME280_temperature;BME280_humidity;BME280_pressure;Samples;Min_cycle;Max_cycle;Signal;HPM_P1;HPM_P2
2021/06/10 00:02:22;;;;;;;8.77;7.30;;;;;;;16.48;80.30;99945.31;1822173;78;21764;-72
2021/06/10 00:04:51;;;;;;;8.80;7.40;;;;;;;16.46;80.43;99942.16;1800913;77;22265;-73
2021/06/10 00:07:18;;;;;;;10.20;7.60;;;;;;;16.46;80.61;99945.41;1822400;77;21697;-73
2021/06/10 00:09:45;;;;;;;8.57;7.53;;;;;;;16.43;80.84;99943.33;1822532;77;21691;-73
2021/06/10 00:12:14;;;;;;;11.23;7.37;;;;;;;16.41;80.99;99944.42;1835993;76;21734;-73
2021/06/10 00:14:41;;;;;;;8.90;7.53;;;;;;;16.41;81.14;99945.77;1835616;77;21804;-72
2021/06/10 00:17:08;;;;;;;8.83;7.93;;;;;;;16.42;81.21;99947.94;1815462;77;21687;-73
2021/06/10 00:19:34;;;;;;;9.63;8.63;;;;;;;16.41;81.29;99940.37;1798815;77;21865;-73
2021/06/10 00:22:01;;;;;;;10.17;7.53;;;;;;;16.39;81.40;99943.95;1816722;77;21721;-72
2021/06/10 00:24:28;;;;;;;8.30;7.50;;;;;;;16.38;81.52;99938.86;1883679;74;21719;-72
2021/06/10 00:26:55;;;;;;;9.47;7.90;;;;;;;16.36;81.56;99945.13;1875979;74;21670;-73
2021/06/10 00:29:22;;;;;;;8.80;7.90;;;;;;;16.36;81.62;99947.83;1870711;74;22222;-73
2021/06/10 00:31:48;;;;;;;8.67;7.77;;;;;;;16.34;81.67;99943.28;1839058;77;21700;-72
2021/06/10 00:34:15;;;;;;;9.80;7.73;;;;;;;16.33;81.79;99941.70;1801548;78;21758;-72
2021/06/10 00:36:43;;;;;;;9.13;8.13;;;;;;;16.30;81.90;99936.93;1805321;77;21719;-72
2021/06/10 00:39:09;;;;;;;10.57;7.90;;;;;;;16.27;82.03;99937.55;1814822;77;21753;-72
2021/06/10 00:41:37;;;;;;;8.40;7.50;;;;;;;16.23;82.14;99939.28;1818768;78;21820;-72
2021/06/10 00:44:07;;;;;;;9.10;8.20;;;;;;;16.22;82.29;99933.63;1818282;77;21675;-72
2021/06/10 00:46:33;;;;;;;10.67;8.03;;;;;;;16.21;82.44;99938.78;1817278;78;21685;-72
2021/06/10 00:49:00;;;;;;;9.27;8.27;;;;;;;16.19;82.63;99936.41;1817591;77;21719;-72
2021/06/10 00:51:28;;;;;;;8.87;7.70;;;;;;;16.16;82.74;99930.29;1798927;77;21707;-72
2021/06/10 00:53:56;;;;;;;9.23;7.97;;;;;;;16.13;82.86;99929.56;1815913;78;22157;-72
2021/06/10 00:56:23;;;;;;;9.17;7.77;;;;;;;16.11;82.96;99923.12;1814733;77;22315;-71
2021/06/10 00:58:49;;;;;;;8.63;7.67;;;;;;;16.10;83.10;99930.17;1813741;77;21710;-72
2021/06/10 01:01:16;;;;;;;8.73;7.83;;;;;;;16.08;83.26;99927.77;1798504;78;21701;-73
2021/06/10 01:03:43;;;;;;;9.17;7.50;;;;;;;16.07;83.39;99926.20;1800351;77;21702;-72
2021/06/10 01:06:18;;;;;;;10.27;8.17;;;;;;;16.05;83.58;99923.00;1847060;76;22329;-73
2021/06/10 01:08:53;;;;;;;10.10;7.60;;;;;;;16.03;83.68;99917.15;1815055;78;21695;-73
2021/06/10 01:11:59;;;;;;;8.60;7.60;;;;;;;16.00;83.78;99919.11;1817824;78;22214;-72
2021/06/10 01:14:44;;;;;;;9.10;7.70;;;;;;;16.00;83.84;99915.63;1817604;77;21632;-72
2021/06/10 01:17:11;;;;;;;10.37;8.23;;;;;;;15.96;83.95;99918.14;1799784;77;21690;-72
2021/06/10 01:19:43;;;;;;;10.80;7.50;;;;;;;15.94;84.04;99913.60;1816559;77;21731;-72
2021/06/10 01:22:27;;;;;;;8.80;7.90;;;;;;;15.94;84.18;99921.12;1819249;78;21692;-71
2021/06/10 01:25:37;;;;;;;8.27;7.47;;;;;;;15.94;84.31;99920.34;1814910;78;21667;-72
2021/06/10 01:28:14;;;;;;;8.27;7.47;;;;;;;15.95;84.37;99920.57;1809423;77;22797;-72
2021/06/10 01:30:48;;;;;;;8.77;7.90;;;;;;;15.95;84.52;99920.57;1813543;77;21748;-72
2021/06/10 01:33:28;;;;;;;8.67;7.77;;;;;;;15.91;84.58;99920.39;1819209;77;22317;-71
2021/06/10 01:36:00;;;;;;;10.17;8.20;;;;;;;15.85;84.72;99914.89;1818458;78;21687;-71
2021/06/10 01:38:27;;;;;;;;;;;;;;;15.81;84.85;99917.95;1818874;77;21688;-71
2021/06/10 01:40:54;;;;;;;11.37;8.90;;;;;;;15.82;85.07;99920.09;1819603;78;20164;-71
2021/06/10 01:43:29;;;;;;;9.90;7.60;;;;;;;15.77;85.36;99926.41;1792430;78;21701;-72
2021/06/10 01:45:56;;;;;;;9.03;8.03;;;;;;;15.73;85.65;99926.79;1819557;78;21696;-72
2021/06/10 01:48:23;;;;;;;9.60;7.70;;;;;;;15.71;85.86;99935.16;1836547;76;21761;-72
2021/06/10 01:50:53;;;;;;;9.57;8.67;;;;;;;15.69;86.03;99942.77;1778090;79;21758;-72
2021/06/10 01:53:19;;;;;;;11.67;8.20;;;;;;;15.69;86.09;99937.38;1810148;77;22229;-73
2021/06/10 01:55:48;;;;;;;9.53;7.47;;;;;;;15.68;86.19;99934.42;1838465;77;22195;-72
2021/06/10 01:58:15;;;;;;;9.53;7.93;;;;;;;15.67;86.33;99940.91;1803449;78;22293;-73
2021/06/10 02:00:42;;;;;;;9.60;8.43;;;;;;;15.65;86.44;99938.24;1812251;77;21784;-72
2021/06/10 02:03:11;;;;;;;9.97;7.77;;;;;;;15.64;86.49;99938.80;1839711;77;21721;-72
2021/06/10 02:05:39;;;;;;;8.70;7.80;;;;;;;15.62;86.58;99935.61;1816780;77;21708;-72
2021/06/10 02:08:08;;;;;;;9.63;7.57;;;;;;;15.58;86.67;99926.55;1804133;78;22195;-72
2021/06/10 02:10:35;;;;;;;8.37;6.93;;;;;;;15.59;86.79;99930.04;1836257;76;21819;-72
2021/06/10 02:13:02;;;;;;;9.57;7.87;;;;;;;15.57;86.84;99926.88;1834521;76;22202;-72
2021/06/10 02:15:29;;;;;;;9.90;7.70;;;;;;;15.58;86.92;99923.87;1838068;76;21724;-72
2021/06/10 02:17:55;;;;;;;9.40;8.40;;;;;;;15.61;87.01;99927.85;1802591;77;21723;-73
2021/06/10 02:20:23;;;;;;;8.80;7.83;;;;;;;15.67;87.03;99930.70;1825947;77;21698;-72
2021/06/10 02:22:49;;;;;;;9.73;8.33;;;;;;;15.71;87.02;99928.98;1822925;77;21690;-71
2021/06/10 02:25:16;;;;;;;9.53;7.70;;;;;;;15.73;86.92;99927.31;1822890;77;21689;-72
2021/06/10 02:27:42;;;;;;;10.90;7.57;;;;;;;15.78;86.81;99932.59;1822654;77;22900;-72
2021/06/10 02:30:10;;;;;;;8.77;7.77;;;;;;;15.81;86.69;99929.28;1819038;78;21753;-72
2021/06/10 02:32:37;;;;;;;9.57;8.07;;;;;;;15.84;86.56;99930.02;1824574;77;21741;-72
2021/06/10 02:35:07;;;;;;;9.03;7.73;;;;;;;15.88;86.44;99933.13;1815698;77;21693;-72
2021/06/10 02:37:34;;;;;;;8.67;7.63;;;;;;;15.94;86.34;99933.80;1821000;77;21670;-72
2021/06/10 02:40:00;;;;;;;11.20;7.67;;;;;;;15.98;86.22;99929.94;1815168;78;22068;-71
2021/06/10 02:42:27;;;;;;;11.67;8.07;;;;;;;16.02;86.09;99935.73;1839528;77;21713;-71
2021/06/10 02:44:54;;;;;;;8.70;7.63;;;;;;;16.04;86.05;99928.16;1835132;76;21793;-72
2021/06/10 02:47:21;;;;;;;9.63;7.60;;;;;;;16.09;85.97;99932.08;1806156;78;21753;-72
2021/06/10 02:49:48;;;;;;;8.37;7.47;;;;;;;16.13;85.76;99920.92;1801375;77;21719;-71
2021/06/10 02:52:17;;;;;;;9.60;7.60;;;;;;;16.22;85.74;99921.50;1804829;79;21679;-71
2021/06/10 02:54:45;;;;;;;11.27;8.07;;;;;;;16.22;85.74;99921.50;1818929;77;21022;-71
2021/06/10 02:57:11;;;;;;;8.80;7.40;;;;;;;16.27;85.34;99918.69;1818760;77;22159;-71
2021/06/10 02:59:38;;;;;;;8.87;7.80;;;;;;;16.32;85.17;99923.92;1798127;77;21777;-72
2021/06/10 03:02:05;;;;;;;8.87;7.50;;;;;;;16.46;85.05;99929.23;1816787;78;21042;-72
2021/06/10 03:04:32;;;;;;;8.83;7.60;;;;;;;16.46;85.05;99929.23;1839264;76;21542;-72
2021/06/10 03:06:59;;;;;;;9.23;7.80;;;;;;;16.56;84.67;99931.09;1763864;78;21793;-72
2021/06/10 03:09:26;;;;;;;7.50;6.73;;;;;;;16.63;84.38;99924.69;1795667;77;22307;-72
2021/06/10 03:11:53;;;;;;;8.33;7.53;;;;;;;16.70;84.24;99931.53;1836009;76;21187;-72
2021/06/10 03:14:20;;;;;;;8.17;7.23;;;;;;;16.69;83.75;99928.60;1827021;77;21546;-73
2021/06/10 03:16:47;;;;;;;8.60;7.60;;;;;;;16.71;83.70;99923.67;1776939;79;21035;-73
2021/06/10 03:19:16;;;;;;;8.33;7.53;;;;;;;16.76;83.67;99928.41;1798194;78;21481;-72
2021/06/10 03:21:45;;;;;;;12.13;8.30;;;;;;;16.85;83.56;99927.09;1813549;77;21128;-74
2021/06/10 03:24:12;;;;;;;8.47;7.67;;;;;;;16.95;83.21;99924.09;1816399;77;21054;-73
2021/06/10 03:26:39;;;;;;;8.83;7.67;;;;;;;17.03;82.69;99920.59;1799734;78;20984;-72
2021/06/10 03:29:06;;;;;;;8.90;7.50;;;;;;;17.09;82.07;99915.30;1816923;77;21463;-72
2021/06/10 03:31:34;;;;;;;8.53;7.53;;;;;;;17.14;81.79;99914.89;1810977;77;21499;-72
2021/06/10 03:34:01;;;;;;;11.03;7.80;;;;;;;17.20;81.52;99917.68;1821220;77;22164;-73
2021/06/10 03:36:30;;;;;;;9.73;8.07;;;;;;;17.28;81.16;99921.75;1806847;77;21019;-72
2021/06/10 03:38:58;;;;;;;8.70;7.70;;;;;;;17.38;80.80;99927.39;1811148;77;21581;-72
2021/06/10 03:41:25;;;;;;;8.10;7.27;;;;;;;17.49;80.50;99927.30;1812934;77;21053;-72
2021/06/10 03:43:54;;;;;;;9.00;8.13;;;;;;;17.64;79.90;99912.52;1818552;77;20959;-72
2021/06/10 03:46:20;;;;;;;8.50;7.27;;;;;;;17.75;79.09;99920.52;1817701;78;21113;-73
2021/06/10 03:48:48;;;;;;;8.63;7.50;;;;;;;17.86;78.64;99917.51;1799967;77;21142;-72
2021/06/10 03:51:17;;;;;;;8.20;7.33;;;;;;;17.96;78.14;99913.91;1814993;78;21711;-72
2021/06/10 03:53:47;;;;;;;8.07;7.30;;;;;;;18.08;77.93;99917.30;1815024;77;21015;-72
2021/06/10 03:56:14;;;;;;;7.60;6.80;;;;;;;18.21;77.38;99909.55;1815329;78;21010;-72
2021/06/10 03:58:41;;;;;;;7.70;6.90;;;;;;;18.30;76.28;99918.20;1818313;77;21137;-72
2021/06/10 04:01:08;;;;;;;9.27;6.90;;;;;;;18.34;75.77;99923.97;1815875;77;21014;-72
2021/06/10 04:03:35;;;;;;;8.13;7.33;;;;;;;18.39;75.15;99923.77;1817699;77;21018;-72
2021/06/10 04:06:02;;;;;;;8.00;7.20;;;;;;;18.41;74.98;99927.52;1817883;77;21015;-72
2021/06/10 04:08:29;;;;;;;8.10;7.30;;;;;;;18.44;74.83;99924.17;1818070;77;21064;-71
2021/06/10 04:10:56;;;;;;;7.63;6.90;;;;;;;18.49;74.61;99919.38;1811793;77;21125;-71
2021/06/10 04:13:23;;;;;;;10.40;7.03;;;;;;;18.54;74.62;99917.05;1807069;77;20979;-72
2021/06/10 04:15:51;;;;;;;9.03;7.27;;;;;;;18.62;74.43;99924.87;1793603;77;21069;-72
2021/06/10 04:18:18;;;;;;;8.57;6.77;;;;;;;18.66;74.02;99922.56;1814981;78;21410;-72
2021/06/10 04:20:47;;;;;;;7.57;6.77;;;;;;;18.69;73.70;99919.73;1809942;77;21054;-72
2021/06/10 04:23:14;;;;;;;9.50;7.53;;;;;;;18.66;73.43;99925.83;1811852;77;21124;-72
2021/06/10 04:25:41;;;;;;;8.70;7.87;;;;;;;18.64;73.41;99927.49;1805164;77;21214;-73
2021/06/10 04:28:08;;;;;;;7.93;7.10;;;;;;;18.65;73.37;99934.48;1801502;77;21136;-72
2021/06/10 04:30:37;;;;;;;8.07;7.27;;;;;;;18.66;73.37;99935.30;1815902;77;21874;-71
2021/06/10 04:33:04;;;;;;;7.80;6.97;;;;;;;18.69;73.52;99923.80;1830218;77;21062;-72
2021/06/10 04:35:30;;;;;;;8.90;7.10;;;;;;;18.71;73.33;99925.63;1795217;77;21099;-72
2021/06/10 04:37:57;;;;;;;7.67;6.87;;;;;;;18.73;73.25;99927.48;1765451;80;21608;-72
2021/06/10 04:40:23;;;;;;;8.00;6.90;;;;;;;18.79;73.12;99923.48;1838057;77;21063;-72
2021/06/10 04:42:50;;;;;;;8.00;7.20;;;;;;;18.83;72.76;99924.41;1804922;77;21036;-72
2021/06/10 04:45:17;;;;;;;8.33;7.10;;;;;;;18.86;72.45;99920.25;1799198;77;21620;-72
2021/06/10 04:47:43;;;;;;;10.17;7.80;;;;;;;18.92;72.37;99928.39;1823721;76;21579;-72
2021/06/10 04:50:11;;;;;;;8.93;7.43;;;;;;;18.92;72.23;99923.80;1839168;77;21027;-72
2021/06/10 04:52:38;;;;;;;7.63;6.93;;;;;;;18.94;71.84;99929.66;1803123;77;21604;-72
2021/06/10 04:55:06;;;;;;;9.97;7.60;;;;;;;18.94;71.50;99927.52;1806465;77;21086;-72
2021/06/10 04:57:34;;;;;;;8.30;7.40;;;;;;;18.95;71.50;99928.55;1824122;77;21033;-73
2021/06/10 05:00:03;;;;;;;9.33;7.13;;;;;;;18.94;71.47;99929.66;1823081;77;21092;-74
2021/06/10 05:02:32;;;;;;;7.80;7.07;;;;;;;18.94;71.54;99929.66;1797418;77;21541;-74
2021/06/10 05:04:58;;;;;;;7.83;7.00;;;;;;;18.93;71.52;99930.78;1814693;77;21022;-73
2021/06/10 05:07:25;;;;;;;8.40;7.53;;;;;;;18.86;71.54;99931.87;1812207;77;21027;-73
2021/06/10 05:09:52;;;;;;;8.57;7.47;;;;;;;18.75;71.66;99936.05;1818726;77;22404;-73
2021/06/10 05:12:19;;;;;;;8.80;7.90;;;;;;;18.62;72.23;99934.34;1812372;77;21011;-73
2021/06/10 05:14:47;;;;;;;8.23;7.33;;;;;;;18.56;72.56;99934.28;1811291;77;21167;-73
2021/06/10 05:17:15;;;;;;;8.13;7.30;;;;;;;18.51;72.90;99929.86;1810606;77;22189;-73
2021/06/10 05:19:42;;;;;;;8.53;7.67;;;;;;;18.55;73.32;99926.73;1811017;78;21023;-72
2021/06/10 05:22:08;;;;;;;8.47;7.60;;;;;;;18.63;73.26;99935.38;1810939;77;21023;-73
2021/06/10 05:24:42;;;;;;;9.03;8.13;;;;;;;18.70;72.85;99922.70;1876614;76;21825;-70
2021/06/10 05:27:09;;;;;;;8.87;7.60;;;;;;;18.76;72.73;99926.84;1873245;74;21016;-72
2021/06/10 05:29:38;;;;;;;8.10;7.30;;;;;;;18.86;72.83;99925.66;1883741;74;21025;-72
2021/06/10 05:32:06;;;;;;;8.23;7.13;;;;;;;19.01;72.63;99929.70;1883849;74;21081;-71
2021/06/10 05:34:33;;;;;;;8.87;7.33;;;;;;;19.12;72.56;99932.27;1877087;74;21022;-74
2021/06/10 05:37:00;;;;;;;7.30;6.60;;;;;;;19.28;72.20;99932.45;1880317;74;21119;-72
2021/06/10 05:39:26;;;;;;;8.73;6.40;;;;;;;19.38;71.61;99932.05;1876903;74;21034;-73
2021/06/10 05:41:55;;;;;;;8.83;6.60;;;;;;;19.46;71.08;99932.55;1882965;75;21148;-74
2021/06/10 05:44:22;;;;;;;7.73;6.60;;;;;;;19.54;70.30;99928.17;1879062;76;21072;-75
2021/06/10 05:46:49;;;;;;;7.60;6.80;;;;;;;19.62;69.71;99934.88;1877942;74;20997;-73
2021/06/10 05:49:17;;;;;;;8.50;6.17;;;;;;;19.71;69.21;99937.55;1883087;74;21119;-76
2021/06/10 05:51:44;;;;;;;6.17;5.57;;;;;;;19.79;69.10;99933.95;1902960;74;21006;-75
2021/06/10 05:54:15;;;;;;;7.47;5.67;;;;;;;19.90;68.13;99932.39;1877590;74;20995;-73
2021/06/10 05:56:42;;;;;;;7.42;5.97;;;;;;;20.01;67.63;99931.42;1878835;74;21009;-75
2021/06/10 05:59:09;;;;;;;6.50;5.90;;;;;;;20.13;67.61;99937.42;1853408;74;21084;-74
2021/06/10 06:01:36;;;;;;;10.00;5.87;;;;;;;20.25;67.20;99938.81;1871973;74;21123;-73
2021/06/10 06:04:03;;;;;;;5.70;5.17;;;;;;;20.42;67.37;99933.73;1876153;75;21015;-73
2021/06/10 06:06:33;;;;;;;6.87;5.60;;;;;;;20.63;67.22;99936.94;1882764;74;21017;-79
2021/06/10 06:09:00;;;;;;;8.00;6.50;;;;;;;20.78;65.56;99947.12;1873244;76;21056;-74
2021/06/10 06:11:26;;;;;;;7.43;6.17;;;;;;;20.87;64.54;99942.94;1862839;74;21053;-75
2021/06/10 06:14:16;;;;;;;7.83;6.37;;;;;;;20.84;63.97;99946.55;1874855;74;21135;-75
2021/06/10 06:16:30;;;;;;;7.07;6.10;;;;;;;20.72;64.03;99941.12;1810749;77;21038;-73
2021/06/10 06:18:52;;;;;;;7.70;6.43;;;;;;;20.58;64.57;99947.46;1784807;78;21026;-74
2021/06/10 06:21:20;;;;;;;7.40;6.07;;;;;;;20.49;65.23;99945.38;1816108;77;21029;-74
2021/06/10 06:23:49;;;;;;;9.87;6.77;;;;;;;20.45;65.74;99940.42;1814527;77;21564;-74
2021/06/10 06:26:16;;;;;;;6.27;5.33;;;;;;;20.41;65.43;99944.38;1803246;78;21067;-73
2021/06/10 06:28:42;;;;;;;6.50;5.43;;;;;;;20.38;65.65;99940.41;1804068;77;20964;-73
2021/06/10 06:31:09;;;;;;;5.43;4.93;;;;;;;20.46;65.61;99938.70;1817947;77;21069;-72
2021/06/10 06:33:36;;;;;;;5.87;5.27;;;;;;;20.57;64.98;99943.17;1815776;77;21034;-73
2021/06/10 06:36:03;;;;;;;6.53;5.00;;;;;;;20.66;64.10;99944.40;1826261;76;21490;-72
2021/06/10 06:38:30;;;;;;;6.57;5.53;;;;;;;20.70;63.70;99943.40;1816876;77;21130;-73
2021/06/10 06:40:58;;;;;;;7.87;5.43;;;;;;;20.71;63.29;99938.76;1827413;77;21078;-75
2021/06/10 06:43:28;;;;;;;6.33;5.27;;;;;;;20.71;63.28;99931.41;1819318;77;21038;-72
2021/06/10 06:45:53;;;;;;;6.27;5.30;;;;;;;20.74;63.29;99933.44;1813984;77;21136;-75
2021/06/10 06:48:21;;;;;;;5.73;5.20;;;;;;;20.79;63.64;99934.55;1817091;77;21022;-73
2021/06/10 06:50:49;;;;;;;7.30;5.07;;;;;;;20.83;63.00;99936.05;1815344;77;21121;-73
2021/06/10 06:53:15;;;;;;;5.93;4.80;;;;;;;20.82;63.02;99937.94;1814760;77;21547;-73
2021/06/10 06:55:43;;;;;;;5.10;4.60;;;;;;;20.82;63.04;99930.38;1812098;77;21022;-72
2021/06/10 06:58:10;;;;;;;7.13;4.63;;;;;;;20.85;63.00;99939.19;1816091;77;21095;-75
2021/06/10 07:00:37;;;;;;;4.80;4.10;;;;;;;20.91;63.06;99926.97;1817065;77;21030;-73
2021/06/10 07:03:06;;;;;;;4.63;3.67;;;;;;;20.99;62.24;99924.72;1809864;77;21109;-74
2021/06/10 07:05:33;;;;;;;4.50;3.43;;;;;;;21.06;60.39;99924.92;1815191;77;21078;-72
2021/06/10 07:08:00;;;;;;;4.77;3.30;;;;;;;21.05;58.71;99924.67;1826017;77;21788;-73
2021/06/10 07:10:29;;;;;;;4.23;3.40;;;;;;;21.04;58.72;99923.10;1820299;77;20946;-72
2021/06/10 07:12:56;;;;;;;4.23;3.30;;;;;;;21.06;59.19;99929.56;1813747;77;21035;-72
2021/06/10 07:15:22;;;;;;;5.60;3.93;;;;;;;21.11;59.15;99931.24;1814854;77;21398;-71
2021/06/10 07:17:49;;;;;;;6.60;3.73;;;;;;;21.20;58.90;99935.41;1814512;77;21125;-75
2021/06/10 07:20:18;;;;;;;4.77;3.10;;;;;;;21.31;58.79;99931.06;1817089;77;21806;-82
2021/06/10 07:22:45;;;;;;;4.23;3.20;;;;;;;21.39;57.81;99932.66;1817562;77;21018;-79
2021/06/10 07:25:12;;;;;;;4.00;3.07;;;;;;;21.41;57.55;99933.11;1813758;77;21072;-78
2021/06/10 07:27:40;;;;;;;3.50;3.00;;;;;;;21.49;57.89;99933.55;1789794;77;21043;-72
2021/06/10 07:30:09;;;;;;;3.70;2.40;;;;;;;21.63;57.74;99934.51;1818682;77;21038;-75
2021/06/10 07:32:38;;;;;;;2.90;2.47;;;;;;;21.77;56.00;99926.16;1821832;77;21037;-77
2021/06/10 07:35:08;;;;;;;3.40;2.40;;;;;;;21.89;55.06;99932.11;1818421;77;21037;-78
2021/06/10 07:37:38;;;;;;;4.60;2.53;;;;;;;21.96;55.14;99930.94;1818085;77;21161;-77
2021/06/10 07:40:06;;;;;;;3.73;2.80;;;;;;;22.08;54.07;99945.05;1815916;77;21181;-74
2021/06/10 07:42:33;;;;;;;3.17;2.47;;;;;;;22.15;53.59;99934.38;1824690;77;21105;-74
2021/06/10 07:44:59;;;;;;;3.60;2.93;;;;;;;22.20;53.92;99935.45;1821171;77;21738;-75
2021/06/10 07:47:26;;;;;;;4.10;3.30;;;;;;;22.22;54.15;99933.19;1816736;77;21132;-74
2021/06/10 07:49:53;;;;;;;4.03;2.80;;;;;;;22.24;54.01;99930.92;1816388;77;21069;-75
2021/06/10 07:52:20;;;;;;;3.50;2.73;;;;;;;22.31;53.87;99935.75;1813102;77;21790;-75
2021/06/10 07:54:47;;;;;;;3.80;2.60;;;;;;;22.39;53.35;99938.84;1802112;78;21068;-75
2021/06/10 07:57:15;;;;;;;4.07;2.80;;;;;;;22.43;51.85;99936.99;1811650;77;21124;-75
2021/06/10 07:59:42;;;;;;;3.10;2.73;;;;;;;22.44;52.21;99941.86;1817008;77;21585;-76
2021/06/10 08:02:16;;;;;;;3.30;2.70;;;;;;;22.47;52.33;99936.53;1809643;77;20997;-74
2021/06/10 08:04:42;;;;;;;4.53;2.83;;;;;;;22.55;52.36;99937.48;1818008;78;21300;-73
2021/06/10 08:07:11;;;;;;;3.37;2.60;;;;;;;22.69;53.22;99937.81;1808433;77;21569;-73
2021/06/10 08:09:38;;;;;;;4.83;2.60;;;;;;;22.78;52.63;99932.19;1812545;77;21065;-75
2021/06/10 08:12:08;;;;;;;4.20;2.53;;;;;;;22.80;50.21;99931.24;1806955;77;21060;-75
2021/06/10 08:14:38;;;;;;;3.87;2.20;;;;;;;22.79;50.38;99924.80;1806357;78;21439;-74
2021/06/10 08:17:11;;;;;;;2.80;1.90;;;;;;;22.86;50.31;99923.59;1809794;78;21213;-74
2021/06/10 08:19:45;;;;;;;4.50;2.23;;;;;;;22.97;49.96;99927.39;1786290;78;21077;-75
2021/06/10 08:22:11;;;;;;;3.40;1.90;;;;;;;23.10;49.59;99935.66;1816945;78;21178;-75
2021/06/10 08:24:40;;;;;;;3.33;1.90;;;;;;;23.21;48.96;99933.73;1799220;78;21642;-74
2021/06/10 08:27:10;;;;;;;3.70;2.03;;;;;;;23.29;48.25;99923.19;1813321;78;21533;-75
2021/06/10 08:29:37;;;;;;;2.70;2.00;;;;;;;23.31;48.03;99919.54;1815237;77;21704;-75
2021/06/10 08:32:05;;;;;;;4.57;2.27;;;;;;;23.35;47.57;99921.17;1817400;78;21054;-73
2021/06/10 08:34:33;;;;;;;2.93;2.00;;;;;;;23.38;47.11;99916.38;1818634;77;21301;-75
2021/06/10 08:37:01;;;;;;;3.90;2.63;;;;;;;23.39;47.08;99915.22;1814937;78;21014;-74
2021/06/10 08:39:28;;;;;;;5.37;2.63;;;;;;;23.44;47.91;99929.73;1814550;77;21612;-75
2021/06/10 08:41:55;;;;;;;3.93;2.80;;;;;;;23.45;48.33;99927.99;1806624;77;21082;-74
2021/06/10 08:44:23;;;;;;;2.60;2.10;;;;;;;23.52;47.96;99922.67;1805740;77;21061;-74
2021/06/10 08:46:52;;;;;;;3.77;2.30;;;;;;;23.57;47.49;99932.52;1802719;77;21117;-74
2021/06/10 08:49:19;;;;;;;4.40;2.50;;;;;;;23.58;47.52;99918.52;1800084;79;21113;-74
2021/06/10 08:51:46;;;;;;;3.30;2.70;;;;;;;23.58;47.66;99922.60;1799619;77;21035;-73
2021/06/10 08:54:18;;;;;;;3.13;2.20;;;;;;;23.47;47.21;99917.53;1818120;78;21100;-73
2021/06/10 08:56:44;;;;;;;3.67;2.40;;;;;;;23.33;46.98;99922.13;1821428;77;21324;-75
2021/06/10 08:59:11;;;;;;;3.50;2.80;;;;;;;23.18;47.84;99921.03;1800573;78;21042;-74
2021/06/10 09:01:39;;;;;;;6.10;3.03;;;;;;;23.08;48.52;99928.41;1821269;77;21117;-73
2021/06/10 09:04:06;;;;;;;3.80;2.80;;;;;;;23.01;48.39;99921.45;1824507;78;21061;-74
2021/06/10 09:06:46;;;;;;;5.43;3.10;;;;;;;22.91;49.02;99917.89;1823089;77;21280;-75
2021/06/10 09:09:22;;;;;;;6.12;3.42;;;;;;;22.80;49.98;99912.77;1822001;77;21081;-75
2021/06/10 09:11:49;;;;;;;5.07;3.57;;;;;;;22.80;50.27;99915.48;1796340;78;21540;-75
2021/06/10 09:14:15;;;;;;;3.60;3.10;;;;;;;22.80;50.35;99915.48;1819354;78;21038;-77
2021/06/10 09:16:48;;;;;;;4.67;3.40;;;;;;;22.76;50.69;99925.51;1824251;77;21053;-74
2021/06/10 09:19:19;;;;;;;3.97;3.23;;;;;;;22.71;50.55;99909.67;1816719;77;22004;-73
2021/06/10 09:21:55;;;;;;;3.97;3.50;;;;;;;22.68;50.54;99904.15;1809850;78;21003;-76
2021/06/10 09:24:34;;;;;;;4.53;3.40;;;;;;;22.71;51.10;99906.95;1813584;78;21038;-75
2021/06/10 09:27:12;;;;;;;4.43;3.27;;;;;;;22.84;50.67;99908.20;1791217;78;21125;-74
2021/06/10 09:29:46;;;;;;;4.53;3.40;;;;;;;23.05;50.46;99904.60;1827205;77;20992;-75
2021/06/10 09:32:17;;;;;;;3.67;2.77;;;;;;;23.32;48.56;99898.73;1817672;77;21092;-74
2021/06/10 09:34:57;;;;;;;6.12;3.33;;;;;;;23.54;47.39;99905.40;1805486;78;21047;-74
2021/06/10 09:37:42;;;;;;;3.77;2.80;;;;;;;23.67;46.87;99906.61;1806821;77;21673;-73
2021/06/10 09:40:18;;;;;;;4.33;2.90;;;;;;;23.71;46.82;99906.91;1838546;77;21042;-74
2021/06/10 09:42:45;;;;;;;3.87;2.93;;;;;;;23.63;45.94;99909.27;1840183;76;21049;-74
2021/06/10 09:45:15;;;;;;;5.30;3.73;;;;;;;23.54;47.10;99907.34;1787747;79;22673;-75
2021/06/10 09:47:51;;;;;;;3.90;3.37;;;;;;;23.41;46.83;99903.97;1823736;76;21526;-73
2021/06/10 09:50:27;;;;;;;4.57;3.43;;;;;;;23.20;47.79;99910.34;1834862;77;21066;-73
2021/06/10 09:53:10;;;;;;;3.40;2.97;;;;;;;23.07;48.23;99910.49;1832050;76;21546;-73
2021/06/10 09:55:51;;;;;;;4.00;3.20;;;;;;;23.01;48.42;99904.31;1778159;77;21629;-74
2021/06/10 09:58:21;;;;;;;4.33;2.80;;;;;;;22.93;48.00;99908.80;1805492;77;21712;-73
2021/06/10 10:00:54;;;;;;;3.67;2.90;;;;;;;22.86;48.39;99912.13;1813727;77;21029;-73
2021/06/10 10:03:32;;;;;;;5.10;2.80;;;;;;;22.85;48.82;99912.50;1813967;77;21612;-74
2021/06/10 10:06:05;;;;;;;4.67;3.00;;;;;;;22.83;49.16;99907.97;1799080;78;21009;-73
2021/06/10 10:08:39;;;;;;;4.17;2.80;;;;;;;22.74;49.46;99912.27;1809758;77;21035;-72
2021/06/10 10:11:07;;;;;;;;;;;;;;;22.65;49.49;99908.94;1822263;78;21160;-73
2021/06/10 10:13:34;;;;;;;5.97;3.00;;;;;;;22.56;49.61;99906.39;1817447;77;20165;-72
2021/06/10 10:16:04;;;;;;;3.20;2.50;;;;;;;22.50;49.83;99901.58;1813466;77;21141;-73
2021/06/10 10:18:32;;;;;;;3.40;2.47;;;;;;;22.47;49.54;99890.81;1815832;77;21471;-73
2021/06/10 10:21:03;;;;;;;3.33;2.40;;;;;;;22.43;48.89;99891.31;1816428;77;21018;-74
2021/06/10 10:23:32;;;;;;;3.77;2.77;;;;;;;22.42;49.12;99882.36;1814514;77;21995;-73
2021/06/10 10:26:00;;;;;;;2.93;2.47;;;;;;;22.43;49.08;99887.23;1816612;77;21646;-74
2021/06/10 10:28:29;;;;;;;7.80;6.50;;;;;;;22.40;49.58;99875.69;1816058;77;20959;-73
2021/06/10 10:30:57;;;;;;;9.73;7.83;;;;;;;22.41;50.24;99877.29;1810581;77;21603;-73
2021/06/10 10:33:25;;;;;;;5.73;4.90;;;;;;;22.43;50.04;99865.46;1818697;78;21021;-73
2021/06/10 10:36:12;;;;;;;3.97;3.40;;;;;;;22.45;50.67;99869.41;1815895;78;21147;-73
2021/06/10 10:38:40;;;;;;;4.33;3.70;;;;;;;22.55;51.01;99865.94;1810896;78;21058;-74
2021/06/10 10:41:12;;;;;;;4.80;3.70;;;;;;;22.64;51.59;99868.69;1814100;78;21017;-72
2021/06/10 10:43:39;;;;;;;5.17;3.70;;;;;;;22.75;51.61;99865.41;1817919;77;21157;-74
2021/06/10 10:46:09;;;;;;;5.03;4.53;;;;;;;22.82;52.08;99867.70;1805624;77;21595;-74
2021/06/10 10:48:42;;;;;;;5.65;4.90;;;;;;;22.87;52.05;99861.20;1815733;78;21138;-77
2021/06/10 10:51:38;;;;;;;4.70;4.20;;;;;;;22.90;51.80;99868.09;1808040;77;21085;-75
2021/06/10 10:54:11;;;;;;;4.73;3.80;;;;;;;22.96;52.03;99865.88;1819204;78;21050;-74
2021/06/10 10:56:41;;;;;;;5.47;4.27;;;;;;;23.05;51.31;99873.27;1804402;78;21085;-74
2021/06/10 10:59:19;;;;;;;5.80;4.23;;;;;;;23.08;50.75;99875.28;1816325;77;21572;-73
2021/06/10 11:02:20;;;;;;;;;;;;;;;;;;;;;
2021/06/10 11:04:57;;;;;;;5.17;4.67;;;;;;;23.02;53.21;99891.69;1836372;77;21011;-73
2021/06/10 11:07:39;;;;;;;6.20;4.50;;;;;;;22.87;53.96;99902.84;1838604;77;21108;-72
2021/06/10 11:10:10;;;;;;;5.87;4.63;;;;;;;22.77;54.00;99895.22;1801969;77;21055;-74
2021/06/10 11:12:54;;;;;;;5.40;4.90;;;;;;;22.73;54.11;99899.77;1838947;76;20999;-73
2021/06/10 11:15:29;;;;;;;7.43;5.00;;;;;;;22.79;54.15;99899.72;1818534;77;21151;-75
2021/06/10 11:18:02;;;;;;;5.17;4.67;;;;;;;22.97;54.30;99911.05;1789478;79;21078;-72
2021/06/10 11:20:41;;;;;;;5.17;4.63;;;;;;;23.10;53.29;99906.24;1802534;77;21563;-77
2021/06/10 11:23:28;;;;;;;8.83;5.43;;;;;;;23.17;53.12;99895.52;1784300;78;21556;-74
2021/06/10 11:25:57;;;;;;;7.03;4.70;;;;;;;23.20;53.13;99889.36;1817662;77;21030;-75
2021/06/10 11:28:27;;;;;;;5.30;4.50;;;;;;;23.36;52.76;99890.62;1820692;78;21124;-73
2021/06/10 11:31:15;;;;;;;8.30;4.47;;;;;;;23.39;51.83;99887.96;1816295;77;21606;-72
2021/06/10 11:33:41;;;;;;;4.50;3.90;;;;;;;23.39;51.27;99884.45;1816908;77;21563;-72
2021/06/10 11:36:11;;;;;;;6.90;3.97;;;;;;;23.40;51.06;99883.33;1822511;77;21070;-73
2021/06/10 11:38:43;;;;;;;4.63;3.50;;;;;;;23.39;51.10;99880.37;1818544;77;21002;-73
2021/06/10 11:41:16;;;;;;;4.12;3.67;;;;;;;23.40;50.76;99880.02;1819511;77;21065;-79
2021/06/10 11:43:46;;;;;;;6.53;4.13;;;;;;;23.39;49.80;99881.73;1880851;74;21042;-73
2021/06/10 11:46:16;;;;;;;4.97;4.00;;;;;;;23.35;50.32;99887.69;1878944;74;21061;-71